McCain, North Carolina
Current Conditions -  °F | °C
As of 4:56 PM on Thursday 18 Dec 2014 (Local Time) from KHFF Reporting Station
Clear Clear  
Wind Chill: 50°   Ceiling: Unl
Heat Index: 50°   Visibility: 10mi
Dew Point: 31°   Wind: 3mph
Humidity: 48%   Direction: 190°S
Pressure: 30.1"   Gusts: NA
Location:  35.07°N, 79.34°W
Report Text: KHFF 182156Z AUTO 19003KT 10SM CLR 10/M01 A3010 RMK AO2 SLP197 T00981007
Loading
Personal Weather Stations






























Interactive Weather Map New forecast layout! Learn more

10-Day Weather Forecast

Advertisements
Track Severe Weather on mobile